sensor_id;sensor_type;location;lat;lon;timestamp;pressure;altitude;pressure_sealevel;temperature;humidity
5146;BME280;2591;48.144;15.152;2023-04-25T00:00:24;75678.63;;;-144.65;100.00
5146;BME280;2591;48.144;15.152;2023-04-25T00:02:52;75682.72;;;-144.65;100.00
5146;BME280;2591;48.144;15.152;2023-04-25T00:05:20;75674.56;;;-144.65;100.00
5146;BME280;2591;48.144;15.152;2023-04-25T00:07:49;75678.63;;;-144.65;100.00
5146;BME280;2591;48.144;15.152;2023-04-25T00:10:18;75674.56;;;-144.65;100.00
5146;BME280;2591;48.144;15.152;2023-04-25T00:12:49;75680.69;;;-144.65;100.00
5146;BME280;2591;48.144;15.152;2023-04-25T00:15:16;75686.78;;;-144.65;100.00
5146;BME280;2591;48.144;15.152;2023-04-25T00:17:46;75688.84;;;-144.65;100.00
5146;BME280;2591;48.144;15.152;2023-04-25T00:20:13;75690.88;;;-144.65;100.00
5146;BME280;2591;48.144;15.152;2023-04-25T00:22:41;75692.91;;;-144.65;100.00
5146;BME280;2591;48.144;15.152;2023-04-25T00:25:09;75707.19;;;-144.65;100.00
5146;BME280;2591;48.144;15.152;2023-04-25T00:27:37;75699.03;;;-144.65;100.00
5146;BME280;2591;48.144;15.152;2023-04-25T00:30:06;75688.84;;;-144.65;100.00
5146;BME280;2591;48.144;15.152;2023-04-25T00:32:34;75694.94;;;-144.65;100.00
5146;BME280;2591;48.144;15.152;2023-04-25T00:35:04;75703.09;;;-144.65;100.00
5146;BME280;2591;48.144;15.152;2023-04-25T00:37:32;75697.00;;;-144.65;100.00
5146;BME280;2591;48.144;15.152;2023-04-25T00:40:00;75703.09;;;-144.65;100.00
5146;BME280;2591;48.144;15.152;2023-04-25T00:42:29;75694.94;;;-144.65;100.00
5146;BME280;2591;48.144;15.152;2023-04-25T00:44:58;75707.19;;;-144.65;100.00
5146;BME280;2591;48.144;15.152;2023-04-25T00:47:27;75715.34;;;-144.65;100.00
5146;BME280;2591;48.144;15.152;2023-04-25T00:49:56;75719.41;;;-144.65;100.00
5146;BME280;2591;48.144;15.152;2023-04-25T00:52:25;75735.72;;;-144.65;100.00
5146;BME280;2591;48.144;15.152;2023-04-25T00:54:53;75733.69;;;-144.65;100.00
5146;BME280;2591;48.144;15.152;2023-04-25T00:57:21;75739.81;;;-144.65;100.00
5146;BME280;2591;48.144;15.152;2023-04-25T00:59:50;75733.69;;;-144.65;100.00
5146;BME280;2591;48.144;15.152;2023-04-25T01:02:21;75731.66;;;-144.65;100.00
5146;BME280;2591;48.144;15.152;2023-04-25T01:04:49;75737.75;;;-144.65;100.00
5146;BME280;2591;48.144;15.152;2023-04-25T01:07:17;75747.94;;;-144.65;100.00
5146;BME280;2591;48.144;15.152;2023-04-25T01:09:46;75756.09;;;-144.65;100.00
5146;BME280;2591;48.144;15.152;2023-04-25T01:12:14;75764.25;;;-144.65;100.00
5146;BME280;2591;48.144;15.152;2023-04-25T01:14:42;75768.34;;;-144.65;100.00
5146;BME280;2591;48.144;15.152;2023-04-25T01:17:10;75780.56;;;-144.65;100.00
5146;BME280;2591;48.144;15.152;2023-04-25T01:19:38;75788.72;;;-144.65;100.00
5146;BME280;2591;48.144;15.152;2023-04-25T01:22:07;75796.88;;;-144.65;100.00
5146;BME280;2591;48.144;15.152;2023-04-25T01:24:37;75800.97;;;-144.65;100.00
5146;BME280;2591;48.144;15.152;2023-04-25T01:27:05;75800.97;;;-144.65;100.00
5146;BME280;2591;48.144;15.152;2023-04-25T01:29:34;75807.06;;;-144.65;100.00
5146;BME280;2591;48.144;15.152;2023-04-25T01:32:02;75813.19;;;-144.65;100.00
5146;BME280;2591;48.144;15.152;2023-04-25T01:34:30;75817.25;;;-144.65;100.00
5146;BME280;2591;48.144;15.152;2023-04-25T01:36:59;75819.31;;;-144.65;100.00
5146;BME280;2591;48.144;15.152;2023-04-25T01:39:29;75817.25;;;-144.65;100.00
5146;BME280;2591;48.144;15.152;2023-04-25T01:41:59;75829.50;;;-144.65;100.00
5146;BME280;2591;48.144;15.152;2023-04-25T01:44:27;75829.50;;;-144.65;100.00
5146;BME280;2591;48.144;15.152;2023-04-25T01:46:54;75833.56;;;-144.65;100.00
5146;BME280;2591;48.144;15.152;2023-04-25T01:49:22;75833.56;;;-144.65;100.00
5146;BME280;2591;48.144;15.152;2023-04-25T01:51:50;75837.66;;;-144.65;100.00
5146;BME280;2591;48.144;15.152;2023-04-25T01:54:18;75841.72;;;-144.65;100.00
5146;BME280;2591;48.144;15.152;2023-04-25T01:56:51;75847.84;;;-144.65;100.00
5146;BME280;2591;48.144;15.152;2023-04-25T01:59:19;75853.97;;;-144.65;100.00
5146;BME280;2591;48.144;15.152;2023-04-25T02:01:48;75862.13;;;-144.65;100.00
5146;BME280;2591;48.144;15.152;2023-04-25T02:04:16;75862.13;;;-144.65;100.00
5146;BME280;2591;48.144;15.152;2023-04-25T02:06:44;75868.22;;;-144.65;100.00
5146;BME280;2591;48.144;15.152;2023-04-25T02:09:12;75870.28;;;-144.65;100.00
5146;BME280;2591;48.144;15.152;2023-04-25T02:11:40;75866.19;;;-144.65;100.00
5146;BME280;2591;48.144;15.152;2023-04-25T02:14:09;75864.16;;;-144.65;100.00
5146;BME280;2591;48.144;15.152;2023-04-25T02:16:37;75862.13;;;-144.65;100.00
5146;BME280;2591;48.144;15.152;2023-04-25T02:19:06;75862.13;;;-144.65;100.00
5146;BME280;2591;48.144;15.152;2023-04-25T02:21:34;75864.16;;;-144.65;100.00
5146;BME280;2591;48.144;15.152;2023-04-25T02:24:03;75874.34;;;-144.65;100.00
5146;BME280;2591;48.144;15.152;2023-04-25T02:26:31;75878.44;;;-144.65;100.00
5146;BME280;2591;48.144;15.152;2023-04-25T02:28:59;75874.34;;;-144.65;100.00
5146;BME280;2591;48.144;15.152;2023-04-25T02:31:29;75878.44;;;-144.65;100.00
5146;BME280;2591;48.144;15.152;2023-04-25T02:33:56;75884.53;;;-144.65;100.00
5146;BME280;2591;48.144;15.152;2023-04-25T02:36:24;75882.50;;;-144.65;100.00
5146;BME280;2591;48.144;15.152;2023-04-25T02:38:52;75886.56;;;-144.65;100.00
5146;BME280;2591;48.144;15.152;2023-04-25T02:41:20;75878.44;;;-144.65;100.00
5146;BME280;2591;48.144;15.152;2023-04-25T02:43:48;75878.44;;;-144.65;100.00
5146;BME280;2591;48.144;15.152;2023-04-25T02:46:16;75878.44;;;-144.65;100.00
5146;BME280;2591;48.144;15.152;2023-04-25T02:48:59;75882.50;;;-144.65;100.00
5146;BME280;2591;48.144;15.152;2023-04-25T02:51:27;75894.75;;;-144.65;100.00
5146;BME280;2591;48.144;15.152;2023-04-25T02:53:54;75894.75;;;-144.65;100.00
5146;BME280;2591;48.144;15.152;2023-04-25T02:56:22;75894.75;;;-144.65;100.00
5146;BME280;2591;48.144;15.152;2023-04-25T02:58:52;75894.75;;;-144.65;100.00
5146;BME280;2591;48.144;15.152;2023-04-25T03:01:20;75894.75;;;-144.65;100.00
5146;BME280;2591;48.144;15.152;2023-04-25T03:03:48;75894.75;;;-144.65;100.00
5146;BME280;2591;48.144;15.152;2023-04-25T03:06:18;75890.66;;;-144.65;100.00
5146;BME280;2591;48.144;15.152;2023-04-25T03:08:46;75890.66;;;-144.65;100.00
5146;BME280;2591;48.144;15.152;2023-04-25T03:11:14;75882.50;;;-144.65;100.00
5146;BME280;2591;48.144;15.152;2023-04-25T03:13:41;75890.66;;;-144.65;100.00
5146;BME280;2591;48.144;15.152;2023-04-25T03:16:09;75882.50;;;-144.65;100.00
5146;BME280;2591;48.144;15.152;2023-04-25T03:18:37;75884.53;;;-144.65;100.00
5146;BME280;2591;48.144;15.152;2023-04-25T03:21:05;75880.47;;;-144.65;100.00
5146;BME280;2591;48.144;15.152;2023-04-25T03:23:34;75884.53;;;-144.65;100.00
5146;BME280;2591;48.144;15.152;2023-04-25T03:26:02;75894.75;;;-144.65;100.00
5146;BME280;2591;48.144;15.152;2023-04-25T03:28:30;75896.78;;;-144.65;100.00
5146;BME280;2591;48.144;15.152;2023-04-25T03:30:58;75906.97;;;-144.65;100.00
5146;BME280;2591;48.144;15.152;2023-04-25T03:33:26;75921.25;;;-144.65;100.00
5146;BME280;2591;48.144;15.152;2023-04-25T03:35:53;75921.25;;;-144.65;100.00
5146;BME280;2591;48.144;15.152;2023-04-25T03:38:21;75925.31;;;-144.65;100.00
5146;BME280;2591;48.144;15.152;2023-04-25T03:40:51;75925.31;;;-144.65;100.00
5146;BME280;2591;48.144;15.152;2023-04-25T03:43:19;75935.50;;;-144.65;100.00
5146;BME280;2591;48.144;15.152;2023-04-25T03:45:47;75931.44;;;-144.65;100.00
5146;BME280;2591;48.144;15.152;2023-04-25T03:48:15;75927.34;;;-144.65;100.00
5146;BME280;2591;48.144;15.152;2023-04-25T03:50:43;75925.31;;;-144.65;100.00
5146;BME280;2591;48.144;15.152;2023-04-25T03:53:11;75927.34;;;-144.65;100.00
5146;BME280;2591;48.144;15.152;2023-04-25T03:55:38;75927.34;;;-144.65;100.00
5146;BME280;2591;48.144;15.152;2023-04-25T03:58:10;75931.44;;;-144.65;100.00
5146;BME280;2591;48.144;15.152;2023-04-25T04:00:38;75923.28;;;-144.65;100.00
5146;BME280;2591;48.144;15.152;2023-04-25T04:03:06;75919.19;;;-144.65;100.00
5146;BME280;2591;48.144;15.152;2023-04-25T04:05:34;75921.25;;;-144.65;100.00
5146;BME280;2591;48.144;15.152;2023-04-25T04:08:02;75927.34;;;-144.65;100.00
5146;BME280;2591;48.144;15.152;2023-04-25T04:10:29;75927.34;;;-144.65;100.00
5146;BME280;2591;48.144;15.152;2023-04-25T04:12:57;75927.34;;;-144.65;100.00
5146;BME280;2591;48.144;15.152;2023-04-25T04:15:26;75927.34;;;-144.65;100.00
5146;BME280;2591;48.144;15.152;2023-04-25T04:17:54;75937.53;;;-144.65;100.00
5146;BME280;2591;48.144;15.152;2023-04-25T04:20:22;75925.31;;;-144.65;100.00
5146;BME280;2591;48.144;15.152;2023-04-25T04:22:50;75915.13;;;-144.65;100.00
5146;BME280;2591;48.144;15.152;2023-04-25T04:25:18;75917.16;;;-144.65;100.00
5146;BME280;2591;48.144;15.152;2023-04-25T04:27:45;75919.19;;;-144.65;100.00
5146;BME280;2591;48.144;15.152;2023-04-25T04:30:13;75919.19;;;-144.65;100.00
5146;BME280;2591;48.144;15.152;2023-04-25T04:32:43;75921.25;;;-144.65;100.00
5146;BME280;2591;48.144;15.152;2023-04-25T04:35:11;75923.28;;;-144.65;100.00
5146;BME280;2591;48.144;15.152;2023-04-25T04:37:39;75923.28;;;-144.65;100.00
5146;BME280;2591;48.144;15.152;2023-04-25T04:40:08;75921.25;;;-144.65;100.00
5146;BME280;2591;48.144;15.152;2023-04-25T04:42:36;75923.28;;;-144.65;100.00
5146;BME280;2591;48.144;15.152;2023-04-25T04:45:05;75927.34;;;-144.65;100.00
5146;BME280;2591;48.144;15.152;2023-04-25T04:47:33;75915.13;;;-144.65;100.00
5146;BME280;2591;48.144;15.152;2023-04-25T04:50:05;75906.97;;;-144.65;100.00
5146;BME280;2591;48.144;15.152;2023-04-25T04:52:34;75894.75;;;-144.65;100.00
5146;BME280;2591;48.144;15.152;2023-04-25T04:55:02;75876.38;;;-144.65;100.00
5146;BME280;2591;48.144;15.152;2023-04-25T04:57:30;75876.38;;;-144.65;100.00
5146;BME280;2591;48.144;15.152;2023-04-25T04:59:59;75866.19;;;-144.65;100.00
5146;BME280;2591;48.144;15.152;2023-04-25T05:02:27;75853.97;;;-144.65;100.00
5146;BME280;2591;48.144;15.152;2023-04-25T05:04:56;75817.25;;;-144.65;100.00
5146;BME280;2591;48.144;15.152;2023-04-25T05:07:25;75780.56;;;-144.65;100.00
5146;BME280;2591;48.144;15.152;2023-04-25T05:09:53;75794.84;;;-144.65;100.00
5146;BME280;2591;48.144;15.152;2023-04-25T05:12:21;75788.72;;;-144.65;100.00
5146;BME280;2591;48.144;15.152;2023-04-25T05:14:48;75772.41;;;-144.65;100.00
5146;BME280;2591;48.144;15.152;2023-04-25T05:17:16;75760.19;;;-144.65;100.00
5146;BME280;2591;48.144;15.152;2023-04-25T05:19:44;75741.84;;;-144.65;100.00
5146;BME280;2591;48.144;15.152;2023-04-25T05:22:13;75733.69;;;-144.65;100.00
5146;BME280;2591;48.144;15.152;2023-04-25T05:24:42;75721.44;;;-144.65;100.00
5146;BME280;2591;48.144;15.152;2023-04-25T05:27:10;75727.56;;;-144.65;100.00
5146;BME280;2591;48.144;15.152;2023-04-25T05:29:38;75733.69;;;-144.65;100.00
5146;BME280;2591;48.144;15.152;2023-04-25T05:32:05;75735.72;;;-144.65;100.00
5146;BME280;2591;48.144;15.152;2023-04-25T05:34:34;75723.50;;;-144.65;100.00
5146;BME280;2591;48.144;15.152;2023-04-25T05:37:02;75713.28;;;-144.65;100.00
5146;BME280;2591;48.144;15.152;2023-04-25T05:39:30;75707.19;;;-144.65;100.00
5146;BME280;2591;48.144;15.152;2023-04-25T05:41:59;75690.88;;;-144.65;100.00
5146;BME280;2591;48.144;15.152;2023-04-25T05:44:28;75686.78;;;-144.65;100.00
5146;BME280;2591;48.144;15.152;2023-04-25T05:46:55;75680.69;;;-144.65;100.00
5146;BME280;2591;48.144;15.152;2023-04-25T05:49:23;75662.34;;;-144.65;100.00
5146;BME280;2591;48.144;15.152;2023-04-25T05:51:51;75650.09;;;-144.65;100.00
5146;BME280;2591;48.144;15.152;2023-04-25T05:54:19;75641.94;;;-144.65;100.00
5146;BME280;2591;48.144;15.152;2023-04-25T05:56:47;75641.94;;;-144.65;100.00
5146;BME280;2591;48.144;15.152;2023-04-25T05:59:17;75631.75;;;-144.65;100.00
5146;BME280;2591;48.144;15.152;2023-04-25T06:01:44;75613.41;;;-144.65;100.00
5146;BME280;2591;48.144;15.152;2023-04-25T06:04:13;75597.09;;;-144.65;100.00
5146;BME280;2591;48.144;15.152;2023-04-25T06:06:41;75580.78;;;-144.65;100.00
5146;BME280;2591;48.144;15.152;2023-04-25T06:09:09;75572.63;;;-144.65;99.01
5146;BME280;2591;48.144;15.152;2023-04-25T06:11:39;75558.38;;;-144.65;96.36
5146;BME280;2591;48.144;15.152;2023-04-25T06:14:07;75554.28;;;-144.65;94.80
5146;BME280;2591;48.144;15.152;2023-04-25T06:16:36;75537.97;;;-144.65;94.44
5146;BME280;2591;48.144;15.152;2023-04-25T06:19:04;75531.88;;;-144.65;92.58
5146;BME280;2591;48.144;15.152;2023-04-25T06:21:32;75523.72;;;-144.65;91.32
5146;BME280;2591;48.144;15.152;2023-04-25T06:24:00;75511.47;;;-144.65;90.01
5146;BME280;2591;48.144;15.152;2023-04-25T06:26:28;75497.22;;;-144.65;88.66
5146;BME280;2591;48.144;15.152;2023-04-25T06:28:56;75487.03;;;-144.65;87.87
5146;BME280;2591;48.144;15.152;2023-04-25T06:31:23;75482.94;;;-144.65;85.95
5146;BME280;2591;48.144;15.152;2023-04-25T06:33:53;75482.94;;;-144.65;85.71
5146;BME280;2591;48.144;15.152;2023-04-25T06:36:21;75472.75;;;-144.65;86.01
5146;BME280;2591;48.144;15.152;2023-04-25T06:38:51;75470.72;;;-144.65;86.46
5146;BME280;2591;48.144;15.152;2023-04-25T06:41:19;75452.38;;;-144.65;84.22
5146;BME280;2591;48.144;15.152;2023-04-25T06:43:47;75436.06;;;-144.65;84.41
5146;BME280;2591;48.144;15.152;2023-04-25T06:46:14;75427.91;;;-144.65;84.92
5146;BME280;2591;48.144;15.152;2023-04-25T06:48:42;75421.78;;;-144.65;86.85
5146;BME280;2591;48.144;15.152;2023-04-25T06:51:12;75411.59;;;-144.65;86.64
5146;BME280;2591;48.144;15.152;2023-04-25T06:53:40;75397.34;;;-144.65;85.04
5146;BME280;2591;48.144;15.152;2023-04-25T06:56:08;75389.19;;;-144.65;80.86
5146;BME280;2591;48.144;15.152;2023-04-25T06:58:36;75385.09;;;-144.65;80.74
5146;BME280;2591;48.144;15.152;2023-04-25T07:01:04;75376.94;;;-144.65;82.84
5146;BME280;2591;48.144;15.152;2023-04-25T07:03:32;75356.56;;;-144.65;81.33
5146;BME280;2591;48.144;15.152;2023-04-25T07:06:00;75372.88;;;-144.65;79.67
5146;BME280;2591;48.144;15.152;2023-04-25T07:08:29;75356.56;;;-144.65;81.22
5146;BME280;2591;48.144;15.152;2023-04-25T07:10:57;75348.41;;;-144.65;81.27
5146;BME280;2591;48.144;15.152;2023-04-25T07:13:25;75328.03;;;-144.65;83.30
5146;BME280;2591;48.144;15.152;2023-04-25T07:15:53;75307.66;;;-144.65;84.32
5146;BME280;2591;48.144;15.152;2023-04-25T07:18:23;75287.25;;;-144.65;84.67
5146;BME280;2591;48.144;15.152;2023-04-25T07:20:51;75289.31;;;-144.65;83.01
5146;BME280;2591;48.144;15.152;2023-04-25T07:23:18;75287.25;;;-144.65;81.03
5146;BME280;2591;48.144;15.152;2023-04-25T07:25:48;75283.19;;;-144.65;79.65
5146;BME280;2591;48.144;15.152;2023-04-25T07:28:15;75295.41;;;-144.65;78.47
5146;BME280;2591;48.144;15.152;2023-04-25T07:30:45;75270.97;;;-144.65;81.60
5146;BME280;2591;48.144;15.152;2023-04-25T07:33:13;75262.81;;;-144.65;79.31
5146;BME280;2591;48.144;15.152;2023-04-25T07:35:41;75250.56;;;-144.65;81.67
5146;BME280;2591;48.144;15.152;2023-04-25T07:38:08;75213.88;;;-144.65;83.80
5146;BME280;2591;48.144;15.152;2023-04-25T07:40:37;75181.28;;;-144.65;81.79
5146;BME280;2591;48.144;15.152;2023-04-25T07:43:06;75173.13;;;-144.65;79.05
5146;BME280;2591;48.144;15.152;2023-04-25T07:45:34;75185.34;;;-144.65;78.10
5146;BME280;2591;48.144;15.152;2023-04-25T07:48:02;75201.66;;;-144.65;76.68
5146;BME280;2591;48.144;15.152;2023-04-25T07:50:30;75175.16;;;-144.65;79.00
5146;BME280;2591;48.144;15.152;2023-04-25T07:52:58;75148.66;;;-144.65;76.81
5146;BME280;2591;48.144;15.152;2023-04-25T07:55:26;75160.88;;;-144.65;76.10
5146;BME280;2591;48.144;15.152;2023-04-25T07:57:54;75148.66;;;-144.65;77.65
5146;BME280;2591;48.144;15.152;2023-04-25T08:00:23;75134.41;;;-144.65;75.71
5146;BME280;2591;48.144;15.152;2023-04-25T08:02:51;75103.81;;;-144.65;74.65
5146;BME280;2591;48.144;15.152;2023-04-25T08:05:19;75103.81;;;-144.65;73.77
5146;BME280;2591;48.144;15.152;2023-04-25T08:07:48;75097.72;;;-144.65;73.17
5146;BME280;2591;48.144;15.152;2023-04-25T08:10:16;75107.91;;;-144.65;72.13
5146;BME280;2591;48.144;15.152;2023-04-25T08:12:44;75128.28;;;-144.65;72.76
5146;BME280;2591;48.144;15.152;2023-04-25T08:15:12;75130.31;;;-144.65;71.75
5146;BME280;2591;48.144;15.152;2023-04-25T08:17:41;75152.75;;;-144.65;74.34
5146;BME280;2591;48.144;15.152;2023-04-25T08:20:11;75128.28;;;-144.65;73.08
5146;BME280;2591;48.144;15.152;2023-04-25T08:22:39;75122.16;;;-144.65;72.24
5146;BME280;2591;48.144;15.152;2023-04-25T08:25:07;75128.28;;;-144.65;72.49
5146;BME280;2591;48.144;15.152;2023-04-25T08:27:35;75124.19;;;-144.65;75.22
5146;BME280;2591;48.144;15.152;2023-04-25T08:30:03;75091.59;;;-144.65;75.41
5146;BME280;2591;48.144;15.152;2023-04-25T08:32:32;75058.97;;;-144.65;72.44
5146;BME280;2591;48.144;15.152;2023-04-25T08:35:01;75079.38;;;-144.65;71.96
5146;BME280;2591;48.144;15.152;2023-04-25T08:37:29;75083.44;;;-144.65;71.72
5146;BME280;2591;48.144;15.152;2023-04-25T08:39:57;75091.59;;;-144.65;71.75
5146;BME280;2591;48.144;15.152;2023-04-25T08:42:27;75067.13;;;-144.65;72.00
5146;BME280;2591;48.144;15.152;2023-04-25T08:44:57;75026.38;;;-144.65;72.36
5146;BME280;2591;48.144;15.152;2023-04-25T08:47:27;74995.81;;;-144.65;72.56
5146;BME280;2591;48.144;15.152;2023-04-25T08:49:55;75003.94;;;-144.65;73.70
5146;BME280;2591;48.144;15.152;2023-04-25T08:52:28;74946.88;;;-144.65;71.11
5146;BME280;2591;48.144;15.152;2023-04-25T08:54:58;74948.91;;;-144.65;70.60
5146;BME280;2591;48.144;15.152;2023-04-25T08:57:28;74936.69;;;-144.65;69.66
5146;BME280;2591;48.144;15.152;2023-04-25T08:59:57;74944.84;;;-144.65;69.86
5146;BME280;2591;48.144;15.152;2023-04-25T09:02:26;74965.22;;;-144.65;69.19
5146;BME280;2591;48.144;15.152;2023-04-25T09:04:54;74944.84;;;-144.65;67.46
5146;BME280;2591;48.144;15.152;2023-04-25T09:07:22;74938.72;;;-144.65;67.63
5146;BME280;2591;48.144;15.152;2023-04-25T09:09:53;74940.78;;;-144.65;66.97
5146;BME280;2591;48.144;15.152;2023-04-25T09:12:21;74940.78;;;-144.65;67.55
5146;BME280;2591;48.144;15.152;2023-04-25T09:15:04;74914.28;;;-144.65;67.51
5146;BME280;2591;48.144;15.152;2023-04-25T09:17:32;74889.81;;;-144.65;65.89
5146;BME280;2591;48.144;15.152;2023-04-25T09:20:08;74887.78;;;-144.65;67.09
5146;BME280;2591;48.144;15.152;2023-04-25T09:22:37;74849.06;;;-144.65;67.20
5146;BME280;2591;48.144;15.152;2023-04-25T09:25:10;74789.94;;;-144.65;65.70
5146;BME280;2591;48.144;15.152;2023-04-25T09:27:49;74769.56;;;-144.65;65.67
5146;BME280;2591;48.144;15.152;2023-04-25T09:30:17;74785.88;;;-144.65;63.65
5146;BME280;2591;48.144;15.152;2023-04-25T09:32:45;74806.25;;;-144.65;64.94
5146;BME280;2591;48.144;15.152;2023-04-25T09:35:23;74765.50;;;-144.65;65.44
5146;BME280;2591;48.144;15.152;2023-04-25T09:37:52;74757.34;;;-144.65;64.08
5146;BME280;2591;48.144;15.152;2023-04-25T09:40:21;74745.13;;;-144.65;65.15
5146;BME280;2591;48.144;15.152;2023-04-25T09:42:49;74773.66;;;-144.65;64.44
5146;BME280;2591;48.144;15.152;2023-04-25T09:45:17;74798.09;;;-144.65;63.67
5146;BME280;2591;48.144;15.152;2023-04-25T09:47:45;74763.47;;;-144.65;65.23
5146;BME280;2591;48.144;15.152;2023-04-25T09:50:14;74747.16;;;-144.65;60.77
5146;BME280;2591;48.144;15.152;2023-04-25T09:52:43;74759.38;;;-144.65;60.50
5146;BME280;2591;48.144;15.152;2023-04-25T09:55:11;74769.56;;;-144.65;61.67
5146;BME280;2591;48.144;15.152;2023-04-25T09:57:40;74718.63;;;-144.65;62.20
5146;BME280;2591;48.144;15.152;2023-04-25T10:00:09;74683.97;;;-144.65;60.07
5146;BME280;2591;48.144;15.152;2023-04-25T10:02:42;74708.44;;;-144.65;61.08
5146;BME280;2591;48.144;15.152;2023-04-25T10:05:11;74692.13;;;-144.65;62.48
5146;BME280;2591;48.144;15.152;2023-04-25T10:07:39;74606.53;;;-144.65;58.79
5146;BME280;2591;48.144;15.152;2023-04-25T10:10:08;74628.94;;;-144.65;58.27
5146;BME280;2591;48.144;15.152;2023-04-25T10:12:41;74708.44;;;-144.65;58.72
5146;BME280;2591;48.144;15.152;2023-04-25T10:15:10;74757.34;;;-144.65;60.24
5146;BME280;2591;48.144;15.152;2023-04-25T10:17:40;74836.81;;;-144.65;60.60
5146;BME280;2591;48.144;15.152;2023-04-25T10:20:08;74971.34;;;-144.65;59.69
5146;BME280;2591;48.144;15.152;2023-04-25T10:22:39;75107.91;;;-144.65;62.00
5146;BME280;2591;48.144;15.152;2023-04-25T10:25:08;75167.00;;;-144.65;64.20
5146;BME280;2591;48.144;15.152;2023-04-25T10:27:38;75177.19;;;-144.65;65.28
5146;BME280;2591;48.144;15.152;2023-04-25T10:30:09;75177.19;;;-144.65;65.66
5146;BME280;2591;48.144;15.152;2023-04-25T10:32:39;75193.50;;;-144.65;66.97
5146;BME280;2591;48.144;15.152;2023-04-25T10:35:11;75226.13;;;-144.65;66.79
5146;BME280;2591;48.144;15.152;2023-04-25T10:37:57;75246.50;;;-144.65;68.31
5146;BME280;2591;48.144;15.152;2023-04-25T10:40:25;75246.50;;;-144.65;68.72
5146;BME280;2591;48.144;15.152;2023-04-25T10:42:53;75321.91;;;-144.65;72.65
5146;BME280;2591;48.144;15.152;2023-04-25T10:45:24;75442.19;;;-144.65;77.40
5146;BME280;2591;48.144;15.152;2023-04-25T10:47:54;75544.09;;;-144.65;81.45
5146;BME280;2591;48.144;15.152;2023-04-25T10:50:37;75637.88;;;-144.65;86.15
5146;BME280;2591;48.144;15.152;2023-04-25T10:53:14;75654.19;;;-144.65;90.38
5146;BME280;2591;48.144;15.152;2023-04-25T10:55:49;75582.84;;;-144.65;96.18
5146;BME280;2591;48.144;15.152;2023-04-25T10:58:21;75560.41;;;-144.65;94.08
5146;BME280;2591;48.144;15.152;2023-04-25T11:00:51;75560.41;;;-144.65;95.37
5146;BME280;2591;48.144;15.152;2023-04-25T11:03:24;75548.19;;;-144.65;95.52
5146;BME280;2591;48.144;15.152;2023-04-25T11:05:52;75519.63;;;-144.65;96.65
5146;BME280;2591;48.144;15.152;2023-04-25T11:08:33;75427.91;;;-144.65;96.30
5146;BME280;2591;48.144;15.152;2023-04-25T11:11:05;75340.25;;;-144.65;94.67
5146;BME280;2591;48.144;15.152;2023-04-25T11:13:33;75291.34;;;-144.65;90.21
5146;BME280;2591;48.144;15.152;2023-04-25T11:16:02;75226.13;;;-144.65;89.02
5146;BME280;2591;48.144;15.152;2023-04-25T11:18:41;75169.03;;;-144.65;87.80
5146;BME280;2591;48.144;15.152;2023-04-25T11:21:09;75124.19;;;-144.65;84.28
5146;BME280;2591;48.144;15.152;2023-04-25T11:23:37;75091.59;;;-144.65;80.33
5146;BME280;2591;48.144;15.152;2023-04-25T11:26:05;75042.69;;;-144.65;76.03
5146;BME280;2591;48.144;15.152;2023-04-25T11:28:33;75010.06;;;-144.65;74.42
5146;BME280;2591;48.144;15.152;2023-04-25T11:31:04;74989.69;;;-144.65;74.68
5146;BME280;2591;48.144;15.152;2023-04-25T11:33:32;74965.22;;;-144.65;70.26
5146;BME280;2591;48.144;15.152;2023-04-25T11:35:59;74973.38;;;-144.65;72.19
5146;BME280;2591;48.144;15.152;2023-04-25T11:38:27;74981.53;;;-144.65;72.65
5146;BME280;2591;48.144;15.152;2023-04-25T11:40:56;74993.75;;;-144.65;72.35
5146;BME280;2591;48.144;15.152;2023-04-25T11:43:25;75001.91;;;-144.65;74.74
5146;BME280;2591;48.144;15.152;2023-04-25T11:45:53;74991.72;;;-144.65;79.11
5146;BME280;2591;48.144;15.152;2023-04-25T11:48:22;74965.22;;;-144.65;79.30
5146;BME280;2591;48.144;15.152;2023-04-25T11:51:10;74938.72;;;-144.65;73.91
5146;BME280;2591;48.144;15.152;2023-04-25T11:53:41;74908.16;;;-144.65;73.70
5146;BME280;2591;48.144;15.152;2023-04-25T11:56:09;74932.63;;;-144.65;71.85
5146;BME280;2591;48.144;15.152;2023-04-25T11:58:56;74995.81;;;-144.65;71.06
5146;BME280;2591;48.144;15.152;2023-04-25T12:01:28;75069.16;;;-144.65;72.56
5146;BME280;2591;48.144;15.152;2023-04-25T12:04:11;75132.34;;;-144.65;72.76
5146;BME280;2591;48.144;15.152;2023-04-25T12:06:42;75199.63;;;-144.65;74.04
5146;BME280;2591;48.144;15.152;2023-04-25T12:09:11;75246.50;;;-144.65;75.42
5146;BME280;2591;48.144;15.152;2023-04-25T12:11:43;75295.41;;;-144.65;75.29
5146;BME280;2591;48.144;15.152;2023-04-25T12:14:12;75315.81;;;-144.65;75.64
5146;BME280;2591;48.144;15.152;2023-04-25T12:16:40;75315.81;;;-144.65;77.31
5146;BME280;2591;48.144;15.152;2023-04-25T12:19:13;75352.50;;;-144.65;78.58
5146;BME280;2591;48.144;15.152;2023-04-25T12:21:41;75348.41;;;-144.65;83.15
5146;BME280;2591;48.144;15.152;2023-04-25T12:24:25;75356.56;;;-144.65;85.45
5146;BME280;2591;48.144;15.152;2023-04-25T12:26:59;75360.66;;;-144.65;88.59
5146;BME280;2591;48.144;15.152;2023-04-25T12:29:30;75348.41;;;-144.65;86.42
5146;BME280;2591;48.144;15.152;2023-04-25T12:32:13;75287.25;;;-144.65;87.61
5146;BME280;2591;48.144;15.152;2023-04-25T12:34:43;75207.78;;;-144.65;85.63
5146;BME280;2591;48.144;15.152;2023-04-25T12:37:11;75181.28;;;-144.65;80.63
5146;BME280;2591;48.144;15.152;2023-04-25T12:39:39;75183.31;;;-144.65;80.94
5146;BME280;2591;48.144;15.152;2023-04-25T12:42:07;75203.69;;;-144.65;79.03
5146;BME280;2591;48.144;15.152;2023-04-25T12:44:38;75220.00;;;-144.65;79.75
5146;BME280;2591;48.144;15.152;2023-04-25T12:47:06;75228.16;;;-144.65;81.05
5146;BME280;2591;48.144;15.152;2023-04-25T12:49:34;75211.84;;;-144.65;80.98
5146;BME280;2591;48.144;15.152;2023-04-25T12:52:03;75199.63;;;-144.65;80.02
5146;BME280;2591;48.144;15.152;2023-04-25T12:54:31;75222.03;;;-144.65;81.27